createdAt,value
2022-07-31T00:01:55.548Z,16.00
2022-07-31T00:04:33.832Z,16.00
2022-07-31T00:07:12.175Z,16.00
2022-07-31T00:09:53.936Z,16.50
2022-07-31T00:12:34.959Z,16.00
2022-07-31T00:15:13.610Z,16.00
2022-07-31T00:17:52.060Z,16.00
2022-07-31T00:20:30.232Z,16.00
2022-07-31T00:23:08.337Z,16.00
2022-07-31T00:25:49.303Z,16.00
2022-07-31T00:28:27.476Z,16.00
2022-07-31T00:31:05.610Z,16.00
2022-07-31T00:33:43.704Z,16.00
2022-07-31T00:36:21.900Z,16.00
2022-07-31T00:39:10.167Z,16.00
2022-07-31T00:41:49.722Z,16.00
2022-07-31T00:44:27.903Z,16.00
2022-07-31T00:47:07.652Z,16.00
2022-07-31T00:49:46.803Z,16.00
2022-07-31T00:52:25.347Z,16.00
2022-07-31T00:55:03.905Z,15.50
2022-07-31T00:57:43.743Z,15.50
2022-07-31T01:00:23.465Z,16.00
2022-07-31T01:03:01.613Z,16.00
2022-07-31T01:05:39.719Z,16.00
2022-07-31T01:08:17.991Z,15.50
2022-07-31T01:11:14.137Z,16.00
2022-07-31T01:13:59.619Z,16.00
2022-07-31T01:16:46.337Z,16.00
2022-07-31T01:19:44.663Z,15.50
2022-07-31T01:22:41.557Z,16.00
2022-07-31T01:26:05.367Z,15.50
2022-07-31T01:29:28.639Z,15.50
2022-07-31T01:32:20.981Z,15.50
2022-07-31T01:35:15.618Z,15.50
2022-07-31T01:38:15.611Z,16.00
2022-07-31T01:41:02.395Z,16.00
2022-07-31T01:43:45.701Z,16.00
2022-07-31T01:46:26.816Z,16.00
2022-07-31T01:49:07.573Z,16.00
2022-07-31T01:51:48.787Z,16.00
2022-07-31T01:54:28.952Z,16.00
2022-07-31T01:57:09.365Z,16.00
2022-07-31T01:59:49.662Z,15.50
2022-07-31T02:02:34.186Z,15.50
2022-07-31T02:05:21.246Z,15.50
2022-07-31T02:08:00.067Z,15.50
2022-07-31T02:10:39.843Z,15.50
2022-07-31T02:13:19.410Z,15.50
2022-07-31T02:16:00.652Z,15.50
2022-07-31T02:18:43.518Z,16.00
2022-07-31T02:21:21.956Z,16.00
2022-07-31T02:24:00.248Z,16.00
2022-07-31T02:26:40.429Z,15.50
2022-07-31T02:29:21.528Z,15.50
2022-07-31T02:32:02.870Z,15.50
2022-07-31T02:34:45.133Z,15.50
2022-07-31T02:37:25.637Z,15.50
2022-07-31T02:40:04.985Z,15.50
2022-07-31T02:42:45.203Z,15.50
2022-07-31T02:45:24.449Z,15.50
2022-07-31T02:48:03.440Z,15.50
2022-07-31T02:50:43.184Z,15.50
2022-07-31T02:53:22.264Z,15.50
2022-07-31T02:56:04.563Z,15.50
2022-07-31T02:58:43.288Z,15.50
2022-07-31T03:01:37.506Z,15.50
2022-07-31T03:04:15.863Z,15.50
2022-07-31T03:06:53.999Z,15.50
2022-07-31T03:09:32.096Z,15.50
2022-07-31T03:12:16.451Z,15.50
2022-07-31T03:14:56.897Z,15.50
2022-07-31T03:17:40.734Z,15.50
2022-07-31T03:20:20.448Z,15.50
2022-07-31T03:23:00.466Z,15.50
2022-07-31T03:25:40.887Z,15.50
2022-07-31T03:28:21.395Z,15.50
2022-07-31T03:30:59.423Z,15.50
2022-07-31T03:33:37.537Z,15.50
2022-07-31T03:36:15.827Z,15.50
2022-07-31T03:38:54.876Z,15.50
2022-07-31T03:41:34.028Z,15.50
2022-07-31T03:44:12.973Z,15.00
2022-07-31T03:46:51.403Z,15.50
2022-07-31T03:49:31.497Z,15.50
2022-07-31T03:52:12.266Z,15.50
2022-07-31T03:54:51.518Z,15.50
2022-07-31T03:57:34.229Z,15.50
2022-07-31T04:00:16.574Z,15.50
2022-07-31T04:02:57.506Z,15.50
2022-07-31T04:05:40.442Z,15.50
2022-07-31T04:08:18.583Z,15.50
2022-07-31T04:10:56.652Z,15.00
2022-07-31T04:13:36.451Z,15.50
2022-07-31T04:16:14.648Z,15.00
2022-07-31T04:18:52.875Z,15.00
2022-07-31T04:21:31.012Z,15.50
2022-07-31T04:24:11.642Z,15.00
2022-07-31T04:26:50.780Z,15.50
2022-07-31T04:29:29.671Z,15.00
2022-07-31T04:32:07.950Z,15.00
2022-07-31T04:34:46.337Z,15.00
2022-07-31T04:37:24.528Z,15.00
2022-07-31T04:40:03.150Z,15.00
2022-07-31T04:42:41.286Z,15.00
2022-07-31T04:45:19.464Z,15.00
2022-07-31T04:47:57.556Z,15.00
2022-07-31T04:50:37.516Z,15.00
2022-07-31T04:53:15.671Z,15.00
2022-07-31T04:56:12.600Z,15.00
2022-07-31T04:58:50.816Z,15.00
2022-07-31T05:01:29.081Z,15.00
2022-07-31T05:04:09.381Z,15.00
2022-07-31T05:06:51.048Z,15.00
2022-07-31T05:09:33.384Z,15.00
2022-07-31T05:12:14.552Z,15.00
2022-07-31T05:14:53.641Z,15.00
2022-07-31T05:17:31.782Z,15.00
2022-07-31T05:20:15.664Z,15.50
2022-07-31T05:22:53.718Z,15.50
2022-07-31T05:25:40.788Z,15.50
2022-07-31T05:28:18.885Z,15.50
2022-07-31T05:31:10.208Z,15.50
2022-07-31T05:33:50.309Z,15.50
2022-07-31T05:36:28.503Z,15.50
2022-07-31T05:39:07.287Z,15.50
2022-07-31T05:41:52.924Z,15.50
2022-07-31T05:44:33.847Z,15.50
2022-07-31T05:47:12.018Z,15.50
2022-07-31T05:49:50.110Z,15.50
2022-07-31T05:52:28.180Z,15.50
2022-07-31T05:55:09.632Z,16.00
2022-07-31T05:58:02.753Z,16.00
2022-07-31T06:00:41.906Z,16.00
2022-07-31T06:03:30.151Z,16.00
2022-07-31T06:06:08.371Z,16.00
2022-07-31T06:08:46.974Z,16.00
2022-07-31T06:11:25.087Z,16.00
2022-07-31T06:14:03.651Z,16.00
2022-07-31T06:16:41.735Z,16.00
2022-07-31T06:19:24.283Z,16.00
2022-07-31T06:22:03.519Z,16.00
2022-07-31T06:24:43.388Z,16.00
2022-07-31T06:27:33.439Z,16.00
2022-07-31T06:30:13.975Z,16.50
2022-07-31T06:32:52.176Z,16.50
2022-07-31T06:35:30.711Z,16.50
2022-07-31T06:38:24.498Z,16.50
2022-07-31T06:41:08.594Z,16.50
2022-07-31T06:43:46.717Z,16.50
2022-07-31T06:46:24.950Z,16.50
2022-07-31T06:49:17.322Z,16.50
2022-07-31T06:51:55.701Z,16.50
2022-07-31T06:54:33.878Z,16.50
2022-07-31T06:57:13.848Z,16.50
2022-07-31T06:59:52.002Z,16.50
2022-07-31T07:02:30.119Z,16.50
2022-07-31T07:05:08.571Z,17.00
2022-07-31T07:07:46.691Z,17.00
2022-07-31T07:10:24.887Z,17.00
2022-07-31T07:13:09.236Z,17.00
2022-07-31T07:15:47.676Z,17.00
2022-07-31T07:18:25.831Z,17.00
2022-07-31T07:21:04.943Z,17.00
2022-07-31T07:23:45.469Z,17.00
2022-07-31T07:26:32.800Z,17.50
2022-07-31T07:29:10.945Z,17.50
2022-07-31T07:31:49.022Z,17.50
2022-07-31T07:34:27.786Z,17.50
2022-07-31T07:37:05.926Z,17.50
2022-07-31T07:39:45.220Z,17.50
2022-07-31T07:42:23.570Z,17.50
2022-07-31T07:45:08.371Z,18.00
2022-07-31T07:48:02.846Z,18.00
2022-07-31T07:50:44.774Z,18.00
2022-07-31T07:53:35.153Z,18.50
2022-07-31T07:56:31.411Z,18.50
2022-07-31T07:59:15.852Z,18.50
2022-07-31T08:01:54.029Z,18.50
2022-07-31T08:04:32.364Z,18.50
2022-07-31T08:07:11.008Z,18.50
2022-07-31T08:09:49.121Z,18.50
2022-07-31T08:12:34.843Z,18.50
2022-07-31T08:15:16.006Z,18.50
2022-07-31T08:18:06.413Z,19.00
2022-07-31T08:20:44.820Z,18.50
2022-07-31T08:23:23.032Z,19.00
2022-07-31T08:26:01.944Z,19.00
2022-07-31T08:28:40.138Z,19.00
2022-07-31T08:31:20.403Z,19.00
2022-07-31T08:33:58.532Z,19.50
2022-07-31T08:36:37.681Z,19.50
2022-07-31T08:39:17.639Z,19.00
2022-07-31T08:42:07.678Z,19.00
2022-07-31T08:44:46.975Z,19.00
2022-07-31T08:47:27.832Z,19.00
2022-07-31T08:50:07.167Z,19.00
2022-07-31T08:52:49.629Z,19.50
2022-07-31T08:55:56.578Z,19.50
2022-07-31T08:58:39.355Z,19.50
2022-07-31T09:01:18.717Z,19.50
2022-07-31T09:03:58.812Z,19.50
2022-07-31T09:06:38.311Z,19.50
2022-07-31T09:09:20.593Z,19.50
2022-07-31T09:11:59.274Z,20.00
2022-07-31T09:14:49.715Z,20.00
2022-07-31T09:17:37.478Z,20.00
2022-07-31T09:20:23.552Z,19.50
2022-07-31T09:23:11.961Z,19.50
2022-07-31T09:26:04.200Z,20.00
2022-07-31T09:28:52.572Z,20.00
2022-07-31T09:31:35.432Z,20.00
2022-07-31T09:34:30.892Z,20.00
2022-07-31T09:37:26.391Z,20.00
2022-07-31T09:40:20.901Z,20.00
2022-07-31T09:42:59.343Z,20.50
2022-07-31T09:45:48.419Z,20.50
2022-07-31T09:48:28.669Z,20.50
2022-07-31T09:51:08.674Z,20.50
2022-07-31T09:53:53.608Z,20.50
2022-07-31T09:56:37.867Z,20.50
2022-07-31T09:59:16.191Z,20.50
2022-07-31T10:01:55.607Z,20.50
2022-07-31T10:04:35.958Z,20.50
2022-07-31T10:07:32.097Z,21.00
2022-07-31T10:10:13.416Z,20.50
2022-07-31T10:12:59.338Z,20.50
2022-07-31T10:15:38.844Z,21.00
2022-07-31T10:18:36.015Z,21.50
2022-07-31T10:21:18.599Z,21.00
2022-07-31T10:23:59.764Z,21.00
2022-07-31T10:27:10.690Z,21.00
2022-07-31T10:29:41.172Z,21.00
2022-07-31T10:32:19.953Z,20.50
2022-07-31T10:35:09.532Z,21.50
2022-07-31T10:38:12.706Z,21.00
2022-07-31T10:41:37.629Z,21.00
2022-07-31T10:44:48.508Z,21.00
2022-07-31T10:47:29.857Z,21.50
2022-07-31T10:50:26.533Z,21.50
2022-07-31T10:53:19.642Z,21.00
2022-07-31T10:56:13.981Z,21.00
2022-07-31T10:59:01.685Z,21.50
2022-07-31T11:01:53.134Z,21.50
2022-07-31T11:04:44.767Z,21.50
2022-07-31T11:07:25.995Z,21.50
2022-07-31T11:10:21.817Z,21.50
2022-07-31T11:13:13.078Z,21.50
2022-07-31T11:16:02.494Z,21.50
2022-07-31T11:19:09.978Z,21.50
2022-07-31T11:21:48.585Z,22.00
2022-07-31T11:24:26.740Z,21.50
2022-07-31T11:27:06.320Z,21.50
2022-07-31T11:29:59.399Z,21.50
2022-07-31T11:32:51.401Z,21.50
2022-07-31T11:35:32.123Z,22.00
2022-07-31T11:38:10.326Z,22.00
2022-07-31T11:40:51.269Z,22.00
2022-07-31T11:43:32.625Z,22.50
2022-07-31T11:46:11.998Z,22.00
2022-07-31T11:48:50.129Z,22.00
2022-07-31T11:51:29.792Z,22.50
2022-07-31T11:54:07.952Z,22.00
2022-07-31T11:56:46.228Z,22.50
2022-07-31T11:59:46.105Z,22.00
2022-07-31T12:02:28.384Z,22.00
2022-07-31T12:05:07.997Z,22.00
2022-07-31T12:07:46.234Z,22.00
2022-07-31T12:10:24.735Z,22.50
2022-07-31T12:13:03.708Z,22.50
2022-07-31T12:15:42.504Z,22.00
2022-07-31T12:18:20.827Z,22.50
2022-07-31T12:21:04.981Z,23.00
2022-07-31T12:23:52.474Z,22.50
2022-07-31T12:26:31.986Z,22.50
2022-07-31T12:29:13.352Z,22.50
2022-07-31T12:31:54.315Z,22.50
2022-07-31T12:34:42.624Z,22.50
2022-07-31T12:37:21.992Z,22.50
2022-07-31T12:40:01.502Z,22.50
2022-07-31T12:42:41.995Z,22.50
2022-07-31T12:45:38.512Z,22.50
2022-07-31T12:48:16.622Z,23.00
2022-07-31T12:50:52.066Z,23.00
2022-07-31T12:53:30.608Z,23.00
2022-07-31T12:56:12.988Z,23.00
2022-07-31T12:58:51.144Z,23.00
2022-07-31T13:01:31.137Z,23.00
2022-07-31T13:04:18.203Z,23.00
2022-07-31T13:06:58.148Z,23.00
2022-07-31T13:09:36.285Z,23.00
2022-07-31T13:12:14.681Z,23.00
2022-07-31T13:14:52.776Z,23.50
2022-07-31T13:17:30.894Z,23.00
2022-07-31T13:20:09.863Z,23.00
2022-07-31T13:22:54.844Z,23.00
2022-07-31T13:25:33.040Z,23.00
2022-07-31T13:28:11.210Z,23.00
2022-07-31T13:30:54.603Z,23.00
2022-07-31T13:33:33.296Z,23.00
2022-07-31T13:36:11.484Z,23.00
2022-07-31T13:38:49.759Z,23.00
2022-07-31T13:41:35.776Z,23.00
2022-07-31T13:44:14.055Z,23.00
2022-07-31T13:46:52.176Z,23.00
2022-07-31T13:49:32.461Z,23.00
2022-07-31T13:52:10.688Z,23.00
2022-07-31T13:54:48.795Z,23.00
2022-07-31T13:57:27.236Z,23.00
2022-07-31T14:00:06.435Z,22.50
2022-07-31T14:02:46.772Z,23.00
2022-07-31T14:05:26.776Z,23.00
2022-07-31T14:08:33.060Z,23.00
2022-07-31T14:11:13.688Z,23.00
2022-07-31T14:13:53.433Z,23.50
2022-07-31T14:16:31.592Z,23.50
2022-07-31T14:19:09.699Z,23.50
2022-07-31T14:21:56.422Z,23.00
2022-07-31T14:24:36.433Z,23.00
2022-07-31T14:27:17.801Z,23.00
2022-07-31T14:29:55.987Z,23.00
2022-07-31T14:32:34.270Z,23.00
2022-07-31T14:35:12.623Z,23.00
2022-07-31T14:37:50.800Z,23.00
2022-07-31T14:40:30.729Z,23.00
2022-07-31T14:43:12.737Z,23.00
2022-07-31T14:45:52.264Z,23.00
2022-07-31T14:48:27.854Z,23.00
2022-07-31T14:51:05.983Z,23.00
2022-07-31T14:53:44.127Z,23.00
2022-07-31T14:56:45.008Z,23.00
2022-07-31T14:59:20.449Z,23.00
2022-07-31T15:01:59.354Z,23.00
2022-07-31T15:04:37.704Z,23.00
2022-07-31T15:10:14.790Z,23.00
2022-07-31T15:12:53.354Z,23.00
2022-07-31T15:15:31.945Z,23.00
2022-07-31T15:18:12.242Z,23.00
2022-07-31T15:20:50.380Z,23.00
2022-07-31T15:23:35.901Z,23.00
2022-07-31T15:26:14.263Z,23.00
2022-07-31T15:28:52.423Z,23.00
2022-07-31T15:31:30.765Z,23.00
2022-07-31T15:34:08.921Z,23.00
2022-07-31T15:36:47.008Z,23.00
2022-07-31T15:39:25.447Z,23.00
2022-07-31T15:42:03.678Z,23.50
2022-07-31T15:44:41.796Z,23.50
2022-07-31T15:47:19.981Z,23.50
2022-07-31T15:49:58.189Z,23.50
2022-07-31T15:52:36.711Z,23.00
2022-07-31T15:55:15.762Z,23.00
2022-07-31T15:57:53.844Z,23.00
2022-07-31T16:00:31.904Z,23.50
2022-07-31T16:03:10.255Z,23.00
2022-07-31T16:05:57.224Z,23.00
2022-07-31T16:08:36.173Z,22.50
2022-07-31T16:11:14.386Z,23.00
2022-07-31T16:13:52.483Z,23.00
2022-07-31T16:16:30.587Z,23.00
2022-07-31T16:19:08.733Z,23.00
2022-07-31T16:21:48.779Z,23.00
2022-07-31T16:24:27.783Z,23.00
2022-07-31T16:27:06.525Z,23.00
2022-07-31T16:29:59.307Z,23.00
2022-07-31T16:32:40.547Z,23.00
2022-07-31T16:35:19.082Z,23.00
2022-07-31T16:37:57.270Z,23.00
2022-07-31T16:40:35.535Z,23.00
2022-07-31T16:43:49.829Z,23.00
2022-07-31T16:46:12.114Z,23.00
2022-07-31T16:48:50.227Z,23.00
2022-07-31T16:51:28.359Z,23.00
2022-07-31T16:54:14.642Z,23.00
2022-07-31T16:56:54.803Z,23.00
2022-07-31T16:59:34.289Z,23.00
2022-07-31T17:02:32.395Z,22.50
2022-07-31T17:05:10.586Z,22.50
2022-07-31T17:07:48.677Z,22.50
2022-07-31T17:10:27.186Z,22.50
2022-07-31T17:13:07.356Z,23.00
2022-07-31T17:15:45.550Z,23.00
2022-07-31T17:18:25.504Z,22.50
2022-07-31T17:21:03.997Z,23.00
2022-07-31T17:23:51.126Z,22.50
2022-07-31T17:26:29.467Z,22.50
2022-07-31T17:29:07.945Z,22.50
2022-07-31T17:31:46.050Z,23.00
2022-07-31T17:34:24.240Z,23.00
2022-07-31T17:37:02.653Z,23.00
2022-07-31T17:39:41.506Z,23.00
2022-07-31T17:42:23.557Z,22.50
2022-07-31T17:45:02.624Z,22.50
2022-07-31T17:47:41.327Z,22.50
2022-07-31T17:50:19.793Z,22.50
2022-07-31T17:52:57.948Z,22.50
2022-07-31T17:55:36.142Z,22.50
2022-07-31T17:58:14.409Z,22.50
2022-07-31T18:00:53.237Z,22.50
2022-07-31T18:03:31.374Z,22.50
2022-07-31T18:06:09.709Z,22.50
2022-07-31T18:08:47.926Z,22.50
2022-07-31T18:11:26.410Z,22.50
2022-07-31T18:14:05.064Z,22.00
2022-07-31T18:16:43.445Z,22.00
2022-07-31T18:19:22.869Z,22.00
2022-07-31T18:22:01.035Z,22.50
2022-07-31T18:24:39.184Z,22.00
2022-07-31T18:27:17.565Z,22.50
2022-07-31T18:29:56.400Z,22.00
2022-07-31T18:32:34.655Z,22.00
2022-07-31T18:35:13.171Z,22.00
2022-07-31T18:37:51.347Z,22.00
2022-07-31T18:40:29.614Z,22.00
2022-07-31T18:43:08.015Z,22.00
2022-07-31T18:45:46.407Z,22.00
2022-07-31T18:48:24.753Z,22.00
2022-07-31T18:51:05.074Z,22.00
2022-07-31T18:53:44.005Z,22.00
2022-07-31T18:56:24.632Z,22.00
2022-07-31T18:59:02.994Z,22.00
2022-07-31T19:01:41.367Z,22.00
2022-07-31T19:04:22.575Z,21.50
2022-07-31T19:07:00.814Z,21.50
2022-07-31T19:09:39.252Z,21.50
2022-07-31T19:12:17.671Z,21.50
2022-07-31T19:14:55.989Z,21.50
2022-07-31T19:17:44.089Z,21.50
2022-07-31T19:20:56.795Z,21.50
2022-07-31T19:23:22.573Z,22.00
2022-07-31T19:26:03.928Z,22.00
2022-07-31T19:28:45.841Z,21.50
2022-07-31T19:31:25.070Z,21.50
2022-07-31T19:37:14.030Z,21.50
2022-07-31T19:39:52.644Z,21.50
2022-07-31T19:42:30.949Z,21.50
2022-07-31T19:45:10.878Z,21.50
2022-07-31T19:47:51.172Z,21.50
2022-07-31T19:50:31.063Z,21.50
2022-07-31T19:53:12.158Z,21.50
2022-07-31T19:55:51.033Z,21.00
2022-07-31T19:58:29.569Z,21.00
2022-07-31T20:01:10.644Z,21.00
2022-07-31T20:03:50.721Z,21.00
2022-07-31T20:06:29.093Z,21.00
2022-07-31T20:09:07.428Z,21.00
2022-07-31T20:11:47.226Z,21.00
2022-07-31T20:14:25.516Z,21.00
2022-07-31T20:17:03.844Z,20.50
2022-07-31T20:20:11.867Z,21.00
2022-07-31T20:22:42.054Z,21.00
2022-07-31T20:25:20.792Z,21.00
2022-07-31T20:27:59.119Z,21.00
2022-07-31T20:30:37.654Z,20.50
2022-07-31T20:33:16.084Z,20.50
2022-07-31T20:35:54.393Z,21.00
2022-07-31T20:38:34.365Z,21.00
2022-07-31T20:41:12.675Z,20.50
2022-07-31T20:43:51.065Z,20.50
2022-07-31T20:46:29.396Z,20.50
2022-07-31T20:49:07.689Z,20.50
2022-07-31T20:51:57.987Z,20.50
2022-07-31T20:54:36.950Z,20.50
2022-07-31T20:57:16.047Z,20.50
2022-07-31T20:59:54.364Z,20.50
2022-07-31T21:02:32.556Z,20.50
2022-07-31T21:05:11.131Z,20.50
2022-07-31T21:07:49.303Z,20.50
2022-07-31T21:10:29.842Z,20.50
2022-07-31T21:13:08.471Z,20.50
2022-07-31T21:15:46.793Z,20.00
2022-07-31T21:18:25.004Z,20.50
2022-07-31T21:21:04.599Z,20.50
2022-07-31T21:23:42.940Z,20.50
2022-07-31T21:26:22.449Z,20.50
2022-07-31T21:29:01.102Z,20.50
2022-07-31T21:31:49.966Z,20.50
2022-07-31T21:34:28.801Z,20.50
2022-07-31T21:37:07.997Z,20.50
2022-07-31T21:39:46.402Z,20.00
2022-07-31T21:42:25.020Z,20.00
2022-07-31T21:45:07.266Z,20.50
2022-07-31T21:47:53.205Z,20.00
2022-07-31T21:50:31.915Z,20.50
2022-07-31T21:53:10.572Z,20.50
2022-07-31T21:55:49.221Z,20.50
2022-07-31T21:58:27.495Z,20.50
2022-07-31T22:01:06.293Z,20.50
2022-07-31T22:03:44.710Z,20.50
2022-07-31T22:06:41.613Z,20.00
2022-07-31T22:09:24.704Z,20.00
2022-07-31T22:12:02.848Z,20.00
2022-07-31T22:14:40.978Z,20.00
2022-07-31T22:17:19.082Z,20.00
2022-07-31T22:20:00.328Z,19.50
2022-07-31T22:22:39.397Z,20.00
2022-07-31T22:25:18.697Z,20.00
2022-07-31T22:27:57.251Z,20.00
2022-07-31T22:30:35.513Z,20.00
2022-07-31T22:33:13.996Z,20.00
2022-07-31T22:35:58.515Z,19.50
2022-07-31T22:38:39.583Z,20.00
2022-07-31T22:41:17.691Z,19.50
2022-07-31T22:44:11.996Z,19.50
2022-07-31T22:46:52.745Z,19.50
2022-07-31T22:49:30.953Z,19.50
2022-07-31T22:52:12.115Z,19.50
2022-07-31T22:54:50.244Z,19.50
2022-07-31T22:57:28.362Z,19.50
2022-07-31T23:00:10.973Z,19.50
2022-07-31T23:02:49.095Z,19.00
2022-07-31T23:05:27.225Z,19.00
2022-07-31T23:08:05.676Z,19.00
2022-07-31T23:10:43.746Z,19.50
2022-07-31T23:13:21.819Z,19.00
2022-07-31T23:16:00.032Z,19.00
2022-07-31T23:18:38.724Z,19.50
2022-07-31T23:21:18.837Z,19.50
2022-07-31T23:23:57.095Z,19.50
2022-07-31T23:26:35.237Z,19.50
2022-07-31T23:29:13.445Z,19.50
2022-07-31T23:31:51.647Z,19.00
2022-07-31T23:34:29.672Z,19.00
2022-07-31T23:37:09.464Z,19.00
2022-07-31T23:39:47.875Z,19.00
2022-07-31T23:42:37.924Z,19.00
2022-07-31T23:45:16.096Z,18.50
2022-07-31T23:47:54.215Z,18.50
2022-07-31T23:50:37.092Z,18.50
2022-07-31T23:53:15.611Z,18.50
2022-07-31T23:55:53.661Z,18.50
2022-07-31T23:58:32.584Z,18.50
